createdAt,value
2022-11-16T00:01:20.384Z,14.53
2022-11-16T00:03:47.601Z,8.47
2022-11-16T00:06:14.935Z,14.87
2022-11-16T00:09:07.188Z,9.63
2022-11-16T00:11:34.713Z,13.97
2022-11-16T00:14:01.294Z,6.37
2022-11-16T00:16:28.543Z,15.17
2022-11-16T00:19:00.728Z,15.20
2022-11-16T00:21:27.799Z,13.47
2022-11-16T00:23:54.597Z,14.40
2022-11-16T00:26:22.157Z,15.93
2022-11-16T00:28:49.627Z,15.73
2022-11-16T00:31:16.189Z,15.83
2022-11-16T00:33:42.826Z,15.93
2022-11-16T00:36:12.188Z,15.27
2022-11-16T00:38:39.403Z,15.77
2022-11-16T00:41:06.828Z,15.57
2022-11-16T00:43:34.374Z,15.20
2022-11-16T00:46:01.258Z,15.40
2022-11-16T00:48:28.062Z,16.17
2022-11-16T00:50:55.105Z,17.07
2022-11-16T00:53:22.765Z,9.50
2022-11-16T00:55:50.180Z,16.40
2022-11-16T00:58:19.162Z,17.13
2022-11-16T01:00:50.435Z,16.60
2022-11-16T01:03:17.106Z,16.20
2022-11-16T01:05:43.944Z,7.53
2022-11-16T01:08:10.709Z,10.80
2022-11-16T01:10:40.077Z,17.43
2022-11-16T01:13:10.951Z,5.10
2022-11-16T01:15:37.788Z,18.43
2022-11-16T01:18:04.547Z,8.37
2022-11-16T01:20:31.179Z,18.63
2022-11-16T01:22:57.805Z,18.77
2022-11-16T01:25:24.953Z,19.27
2022-11-16T01:27:51.604Z,17.60
2022-11-16T01:30:35.204Z,12.67
2022-11-16T01:33:06.395Z,6.03
2022-11-16T01:35:33.028Z,14.37
2022-11-16T01:37:59.662Z,8.33
2022-11-16T01:40:27.947Z,17.10
2022-11-16T01:42:57.300Z,19.03
2022-11-16T01:45:38.504Z,5.20
2022-11-16T01:48:10.430Z,18.83
2022-11-16T01:50:37.604Z,5.43
2022-11-16T01:53:06.968Z,18.77
2022-11-16T01:55:44.601Z,10.90
2022-11-16T01:58:19.560Z,17.37
2022-11-16T02:00:50.671Z,5.47
2022-11-16T02:03:30.902Z,19.77
2022-11-16T02:06:06.352Z,5.87
2022-11-16T02:09:17.719Z,19.07
2022-11-16T02:12:29.106Z,16.40
2022-11-16T02:15:32.747Z,18.07
2022-11-16T02:19:00.623Z,7.50
2022-11-16T02:21:42.562Z,20.30
2022-11-16T02:24:35.127Z,19.50
2022-11-16T02:27:24.630Z,5.93
2022-11-16T02:29:53.690Z,11.17
2022-11-16T02:32:33.889Z,14.90
2022-11-16T02:35:08.680Z,16.37
2022-11-16T02:37:51.225Z,9.73
2022-11-16T02:40:27.555Z,19.23
2022-11-16T02:43:08.071Z,11.07
2022-11-16T02:45:46.314Z,21.07
2022-11-16T02:48:35.863Z,20.00
2022-11-16T02:51:12.679Z,20.60
2022-11-16T02:54:18.547Z,19.97
2022-11-16T02:56:57.214Z,21.50
2022-11-16T02:59:48.992Z,21.83
2022-11-16T03:02:29.409Z,21.07
2022-11-16T03:05:05.945Z,20.50
2022-11-16T03:08:26.758Z,17.27
2022-11-16T03:11:20.793Z,7.03
2022-11-16T03:14:00.321Z,6.23
2022-11-16T03:16:31.506Z,19.90
2022-11-16T03:19:02.030Z,21.87
2022-11-16T03:21:37.952Z,20.80
2022-11-16T03:24:05.860Z,21.20
2022-11-16T03:26:46.306Z,17.47
2022-11-16T03:29:33.644Z,15.97
2022-11-16T03:32:39.974Z,20.50
2022-11-16T03:35:19.632Z,18.90
2022-11-16T03:37:50.457Z,20.27
2022-11-16T03:40:18.467Z,20.73
2022-11-16T03:42:49.429Z,20.33
2022-11-16T03:45:18.255Z,20.23
2022-11-16T03:47:45.682Z,21.47
2022-11-16T03:50:13.945Z,21.17
2022-11-16T03:52:41.325Z,20.97
2022-11-16T03:55:08.494Z,15.10
2022-11-16T03:57:35.871Z,19.97
2022-11-16T04:00:02.682Z,20.43
2022-11-16T04:02:29.654Z,20.23
2022-11-16T04:05:16.739Z,20.67
2022-11-16T04:08:02.695Z,20.40
2022-11-16T04:10:52.488Z,20.30
2022-11-16T04:13:45.711Z,8.57
2022-11-16T04:16:31.038Z,20.33
2022-11-16T04:19:17.565Z,19.93
2022-11-16T04:22:12.862Z,15.03
2022-11-16T04:24:43.337Z,19.23
2022-11-16T04:27:31.644Z,19.70
2022-11-16T04:30:00.723Z,19.43
2022-11-16T04:32:47.029Z,17.80
2022-11-16T04:35:32.426Z,19.53
2022-11-16T04:37:59.691Z,20.67
2022-11-16T04:40:30.814Z,20.10
2022-11-16T04:43:00.588Z,20.43
2022-11-16T04:45:50.472Z,12.30
2022-11-16T04:48:20.281Z,20.37
2022-11-16T04:50:49.633Z,20.40
2022-11-16T04:53:16.349Z,14.77
2022-11-16T04:55:46.535Z,21.17
2022-11-16T04:58:14.159Z,10.73
2022-11-16T05:00:40.912Z,20.33
2022-11-16T05:03:08.623Z,20.87
2022-11-16T05:05:36.191Z,14.33
2022-11-16T05:08:02.771Z,16.47
2022-11-16T05:10:31.922Z,5.97
2022-11-16T05:12:59.227Z,17.50
2022-11-16T05:15:27.665Z,20.03
2022-11-16T05:17:55.697Z,20.07
2022-11-16T05:20:43.200Z,11.10
2022-11-16T05:23:29.951Z,16.67
2022-11-16T05:26:00.779Z,19.10
2022-11-16T05:28:28.170Z,17.43
2022-11-16T05:30:55.293Z,6.70
2022-11-16T05:33:23.863Z,13.87
2022-11-16T05:35:51.601Z,9.67
2022-11-16T05:38:19.630Z,20.70
2022-11-16T05:40:49.784Z,19.90
2022-11-16T05:43:16.974Z,5.50
2022-11-16T05:45:52.219Z,10.57
2022-11-16T05:48:19.098Z,9.87
2022-11-16T05:50:45.902Z,9.60
2022-11-16T05:53:20.349Z,19.10
2022-11-16T05:55:48.009Z,22.57
2022-11-16T05:58:14.711Z,19.90
2022-11-16T06:00:41.498Z,13.03
2022-11-16T06:03:10.118Z,10.93
2022-11-16T06:05:40.479Z,8.23
2022-11-16T06:08:08.919Z,17.87
2022-11-16T06:10:36.852Z,18.00
2022-11-16T06:13:03.929Z,7.60
2022-11-16T06:15:30.581Z,17.10
2022-11-16T06:17:57.939Z,14.80
2022-11-16T06:20:25.012Z,17.53
2022-11-16T06:22:53.045Z,18.53
2022-11-16T06:25:20.342Z,18.20
2022-11-16T06:27:46.963Z,15.80
2022-11-16T06:30:17.773Z,17.07
2022-11-16T06:32:44.773Z,18.93
2022-11-16T06:35:11.738Z,17.63
2022-11-16T06:37:39.559Z,9.37
2022-11-16T06:40:08.223Z,17.57
2022-11-16T06:42:38.836Z,11.10
2022-11-16T06:45:08.425Z,18.50
2022-11-16T06:47:39.638Z,6.30
2022-11-16T06:50:07.319Z,17.30
2022-11-16T06:52:34.402Z,17.77
2022-11-16T06:55:01.020Z,14.60
2022-11-16T06:57:33.362Z,17.53
2022-11-16T07:00:00.017Z,16.07
2022-11-16T07:02:26.791Z,17.20
2022-11-16T07:04:53.601Z,16.77
2022-11-16T07:07:20.250Z,17.53
2022-11-16T07:09:46.884Z,17.30
2022-11-16T07:12:15.022Z,18.37
2022-11-16T07:14:42.183Z,17.53
2022-11-16T07:17:10.427Z,15.87
2022-11-16T07:19:37.426Z,17.17
2022-11-16T07:22:05.353Z,18.47
2022-11-16T07:24:32.823Z,18.03
2022-11-16T07:26:59.581Z,17.80
2022-11-16T07:29:28.543Z,16.93
2022-11-16T07:32:10.417Z,17.10
2022-11-16T07:34:58.959Z,18.33
2022-11-16T07:37:26.386Z,11.40
2022-11-16T07:39:53.450Z,18.87
2022-11-16T07:42:20.281Z,18.90
2022-11-16T07:45:19.417Z,14.70
2022-11-16T07:47:53.405Z,17.73
2022-11-16T07:50:43.007Z,20.03
2022-11-16T07:53:10.148Z,18.57
2022-11-16T07:55:38.874Z,19.40
2022-11-16T07:58:05.582Z,17.70
2022-11-16T08:00:32.403Z,16.90
2022-11-16T08:03:08.361Z,20.10
2022-11-16T08:05:35.629Z,19.50
2022-11-16T08:08:02.229Z,19.10
2022-11-16T08:10:30.939Z,17.67
2022-11-16T08:12:58.782Z,15.47
2022-11-16T08:15:26.235Z,20.33
2022-11-16T08:17:53.152Z,19.63
2022-11-16T08:20:19.958Z,20.13
2022-11-16T08:22:49.571Z,18.83
2022-11-16T08:25:16.506Z,19.87
2022-11-16T08:27:43.817Z,21.17
2022-11-16T08:30:11.519Z,20.73
2022-11-16T08:32:39.057Z,19.20
2022-11-16T08:35:06.240Z,21.10
2022-11-16T08:37:33.747Z,10.97
2022-11-16T08:40:00.596Z,15.30
2022-11-16T08:42:27.890Z,13.97
2022-11-16T08:44:54.531Z,20.63
2022-11-16T08:47:21.180Z,20.30
2022-11-16T08:49:52.187Z,15.17
2022-11-16T08:52:20.892Z,18.93
2022-11-16T08:54:49.552Z,19.83
2022-11-16T08:57:17.028Z,21.93
2022-11-16T08:59:45.807Z,8.20
2022-11-16T09:02:13.996Z,18.90
2022-11-16T09:04:40.671Z,15.40
2022-11-16T09:07:07.310Z,20.20
2022-11-16T09:09:33.909Z,16.97
2022-11-16T09:12:00.486Z,20.87
2022-11-16T09:14:28.913Z,10.03
2022-11-16T09:16:55.524Z,21.93
2022-11-16T09:19:22.348Z,21.27
2022-11-16T09:21:48.951Z,16.77
2022-11-16T09:24:15.665Z,22.87
2022-11-16T09:26:42.282Z,21.13
2022-11-16T09:29:12.646Z,17.33
2022-11-16T09:31:39.581Z,11.90
2022-11-16T09:34:06.344Z,22.67
2022-11-16T09:36:32.971Z,22.73
2022-11-16T09:39:30.017Z,22.90
2022-11-16T09:42:20.792Z,25.47
2022-11-16T09:45:15.212Z,23.57
2022-11-16T09:47:50.398Z,24.33
2022-11-16T09:50:46.824Z,22.57
2022-11-16T09:53:28.252Z,7.57
2022-11-16T09:56:00.675Z,24.17
2022-11-16T09:58:31.850Z,19.13
2022-11-16T10:01:13.850Z,23.17
2022-11-16T10:03:46.326Z,24.30
2022-11-16T10:06:36.617Z,23.10
2022-11-16T10:09:04.334Z,25.37
2022-11-16T10:11:43.662Z,24.00
2022-11-16T10:14:22.199Z,23.03
2022-11-16T10:17:06.015Z,24.40
2022-11-16T10:19:55.976Z,16.27
2022-11-16T10:22:39.647Z,24.93
2022-11-16T10:25:19.474Z,25.23
2022-11-16T10:28:01.979Z,24.20
2022-11-16T10:30:29.305Z,16.97
2022-11-16T10:33:09.644Z,25.53
2022-11-16T10:35:42.725Z,19.23
2022-11-16T10:38:17.462Z,24.30
2022-11-16T10:40:49.496Z,25.60
2022-11-16T10:43:23.743Z,25.93
2022-11-16T10:46:15.418Z,26.30
2022-11-16T10:49:05.867Z,26.07
2022-11-16T10:51:32.483Z,25.47
2022-11-16T10:53:59.211Z,21.07
2022-11-16T10:56:30.073Z,26.00
2022-11-16T10:58:59.731Z,11.70
2022-11-16T11:01:41.855Z,26.97
2022-11-16T11:04:17.968Z,23.07
2022-11-16T11:06:46.519Z,26.87
2022-11-16T11:09:29.176Z,24.63
2022-11-16T11:12:24.766Z,26.73
2022-11-16T11:15:14.667Z,23.30
2022-11-16T11:17:43.575Z,26.63
2022-11-16T11:20:22.836Z,25.20
2022-11-16T11:22:57.845Z,26.37
2022-11-16T11:25:24.439Z,13.20
2022-11-16T11:28:02.343Z,27.07
2022-11-16T11:30:29.691Z,24.93
2022-11-16T11:32:58.099Z,9.13
2022-11-16T11:35:30.994Z,26.60
2022-11-16T11:38:04.789Z,27.20
2022-11-16T11:40:34.202Z,26.87
2022-11-16T11:43:03.708Z,15.93
2022-11-16T11:45:46.135Z,20.57
2022-11-16T11:48:35.902Z,26.77
2022-11-16T11:51:15.771Z,27.60
2022-11-16T11:53:59.322Z,26.90
2022-11-16T11:56:28.686Z,28.90
2022-11-16T11:58:56.311Z,27.87
2022-11-16T12:01:50.788Z,28.13
2022-11-16T12:04:53.001Z,27.13
2022-11-16T12:07:43.782Z,28.23
2022-11-16T12:10:30.019Z,28.80
2022-11-16T12:13:25.943Z,22.50
2022-11-16T12:15:58.358Z,30.30
2022-11-16T12:18:27.782Z,28.97
2022-11-16T12:21:19.242Z,9.73
2022-11-16T12:23:55.506Z,23.07
2022-11-16T12:26:52.612Z,27.80
2022-11-16T12:29:39.654Z,28.07
2022-11-16T12:32:14.144Z,31.07
2022-11-16T12:34:58.933Z,30.70
2022-11-16T12:37:46.566Z,30.10
2022-11-16T12:40:16.174Z,25.70
2022-11-16T12:43:01.120Z,30.30
2022-11-16T12:45:51.978Z,30.63
2022-11-16T12:49:04.783Z,29.77
2022-11-16T12:52:03.273Z,30.93
2022-11-16T12:55:24.697Z,29.10
2022-11-16T12:58:01.720Z,30.93
2022-11-16T13:00:31.346Z,31.90
2022-11-16T13:03:13.434Z,30.33
2022-11-16T13:05:42.978Z,30.43
2022-11-16T13:08:28.450Z,31.47
2022-11-16T13:11:07.656Z,31.57
2022-11-16T13:13:36.725Z,30.63
2022-11-16T13:16:06.484Z,29.77
2022-11-16T13:18:37.373Z,32.53
2022-11-16T13:21:11.350Z,30.37
2022-11-16T13:23:46.034Z,30.20
2022-11-16T13:26:29.010Z,26.37
2022-11-16T13:29:20.396Z,30.43
2022-11-16T13:32:04.551Z,29.10
2022-11-16T13:34:37.556Z,21.67
2022-11-16T13:37:38.481Z,29.00
2022-11-16T13:40:05.104Z,25.63
2022-11-16T13:42:34.024Z,26.77
2022-11-16T13:45:20.667Z,28.43
2022-11-16T13:47:55.974Z,26.57
2022-11-16T13:50:37.289Z,22.97
2022-11-16T13:53:57.607Z,25.60
2022-11-16T13:56:13.526Z,23.73
2022-11-16T13:58:46.789Z,21.60
2022-11-16T14:01:14.881Z,22.90
2022-11-16T14:03:46.729Z,23.50
2022-11-16T14:06:13.284Z,10.17
2022-11-16T14:08:39.820Z,18.60
2022-11-16T14:11:44.293Z,19.40
2022-11-16T14:14:13.319Z,19.50
2022-11-16T14:16:48.944Z,20.80
2022-11-16T14:19:51.918Z,21.07
2022-11-16T14:22:56.529Z,19.87
2022-11-16T14:25:31.888Z,21.07
2022-11-16T14:28:42.769Z,20.40
2022-11-16T14:31:12.407Z,20.97
2022-11-16T14:33:39.382Z,27.40
2022-11-16T14:36:08.922Z,20.47
2022-11-16T14:38:38.566Z,20.70
2022-11-16T14:41:11.112Z,20.90
2022-11-16T14:43:49.603Z,20.50
2022-11-16T14:46:22.207Z,21.27
2022-11-16T14:48:49.373Z,21.97
2022-11-16T14:51:27.131Z,22.20
2022-11-16T14:53:59.190Z,22.00
2022-11-16T14:56:26.026Z,22.00
2022-11-16T14:59:00.403Z,23.47
2022-11-16T15:01:36.606Z,23.27
2022-11-16T15:04:11.993Z,23.43
2022-11-16T15:06:49.917Z,23.23
2022-11-16T15:09:33.036Z,23.23
2022-11-16T15:12:21.370Z,23.93
2022-11-16T15:14:51.255Z,22.87
2022-11-16T15:17:22.014Z,22.50
2022-11-16T15:19:56.674Z,22.17
2022-11-16T15:22:25.665Z,24.50
2022-11-16T15:25:02.061Z,24.37
2022-11-16T15:27:40.590Z,23.30
2022-11-16T15:30:36.904Z,21.80
2022-11-16T15:33:15.150Z,21.80
2022-11-16T15:35:41.894Z,21.57
2022-11-16T15:38:22.634Z,21.23
2022-11-16T15:40:55.746Z,21.30
2022-11-16T15:43:25.825Z,20.27
2022-11-16T15:45:53.790Z,18.23
2022-11-16T15:48:23.351Z,17.50
2022-11-16T15:51:11.939Z,18.37
2022-11-16T15:53:43.398Z,16.90
2022-11-16T15:56:25.097Z,18.00
2022-11-16T15:59:01.134Z,16.70
2022-11-16T16:01:30.140Z,16.43
2022-11-16T16:04:00.396Z,16.13
2022-11-16T16:06:48.777Z,14.70
2022-11-16T16:09:33.603Z,15.13
2022-11-16T16:12:23.471Z,15.90
2022-11-16T16:14:52.095Z,15.80
2022-11-16T16:17:26.873Z,14.03
2022-11-16T16:20:01.589Z,15.70
2022-11-16T16:22:33.783Z,14.37
2022-11-16T16:25:01.530Z,15.37
2022-11-16T16:27:29.959Z,15.07
2022-11-16T16:29:58.784Z,14.10
2022-11-16T16:32:30.726Z,13.87
2022-11-16T16:34:59.541Z,13.57
2022-11-16T16:37:27.890Z,13.30
2022-11-16T16:39:54.531Z,12.57
2022-11-16T16:42:21.862Z,12.03
2022-11-16T16:44:48.814Z,11.87
2022-11-16T16:47:16.784Z,12.33
2022-11-16T16:49:43.711Z,11.50
2022-11-16T16:52:12.499Z,12.20
2022-11-16T16:54:40.146Z,10.90
2022-11-16T16:57:11.679Z,11.10
2022-11-16T16:59:40.656Z,10.97
2022-11-16T17:02:09.684Z,10.90
2022-11-16T17:04:36.241Z,11.43
2022-11-16T17:07:03.028Z,10.60
2022-11-16T17:09:29.670Z,10.43
2022-11-16T17:11:56.257Z,10.40
2022-11-16T17:14:24.552Z,10.17
2022-11-16T17:16:52.035Z,9.13
2022-11-16T17:19:19.366Z,9.50
2022-11-16T17:21:46.011Z,11.37
2022-11-16T17:24:12.808Z,10.80
2022-11-16T17:26:40.745Z,10.50
2022-11-16T17:29:07.327Z,8.80
2022-11-16T17:31:33.979Z,8.93
2022-11-16T17:34:00.697Z,8.27
2022-11-16T17:36:27.276Z,8.33
2022-11-16T17:38:53.864Z,8.47
2022-11-16T17:41:24.033Z,8.33
2022-11-16T17:43:52.917Z,8.17
2022-11-16T17:46:21.924Z,8.23
2022-11-16T17:48:49.066Z,7.60
2022-11-16T17:51:18.369Z,7.47
2022-11-16T17:53:45.313Z,8.20
2022-11-16T17:56:17.817Z,7.87
2022-11-16T17:58:47.468Z,7.63
2022-11-16T18:01:14.438Z,7.33
2022-11-16T18:03:41.713Z,7.37
2022-11-16T18:06:12.033Z,6.77
2022-11-16T18:08:39.344Z,6.07
2022-11-16T18:11:15.514Z,6.60
2022-11-16T18:13:43.383Z,6.30
2022-11-16T18:16:18.540Z,5.53
2022-11-16T18:18:46.667Z,5.80
2022-11-16T18:21:20.097Z,6.40
2022-11-16T18:23:47.846Z,5.83
2022-11-16T18:26:20.948Z,6.57
2022-11-16T18:28:49.012Z,6.30
2022-11-16T18:31:17.716Z,6.30
2022-11-16T18:33:44.492Z,6.43
2022-11-16T18:36:12.123Z,7.97
2022-11-16T18:38:39.293Z,6.57
2022-11-16T18:41:14.518Z,6.87
2022-11-16T18:43:52.913Z,6.37
2022-11-16T18:46:20.865Z,6.30
2022-11-16T18:48:47.671Z,7.43
2022-11-16T18:51:15.494Z,7.03
2022-11-16T18:53:42.302Z,7.37
2022-11-16T18:56:09.563Z,7.90
2022-11-16T18:58:49.819Z,6.60
2022-11-16T19:01:20.108Z,6.50
2022-11-16T19:03:46.760Z,5.43
2022-11-16T19:06:15.515Z,5.97
2022-11-16T19:08:42.717Z,8.53
2022-11-16T19:11:14.818Z,7.43
2022-11-16T19:13:43.149Z,7.07
2022-11-16T19:16:11.415Z,6.63
2022-11-16T19:18:38.248Z,6.87
2022-11-16T19:21:13.020Z,7.40
2022-11-16T19:23:45.127Z,5.50
2022-11-16T19:26:13.558Z,5.90
2022-11-16T19:28:42.089Z,7.40
2022-11-16T19:31:13.447Z,7.43
2022-11-16T19:33:40.644Z,7.97
2022-11-16T19:36:12.570Z,7.23
2022-11-16T19:38:39.532Z,7.83
2022-11-16T19:41:07.495Z,5.87
2022-11-16T19:43:34.803Z,6.03
2022-11-16T19:46:07.076Z,7.70
2022-11-16T19:48:33.908Z,7.23
2022-11-16T19:51:12.324Z,7.33
2022-11-16T19:53:39.668Z,7.13
2022-11-16T19:56:08.622Z,6.27
2022-11-16T19:58:36.917Z,7.37
2022-11-16T20:01:06.127Z,7.30
2022-11-16T20:03:33.279Z,6.10
2022-11-16T20:06:17.366Z,6.53
2022-11-16T20:08:50.710Z,7.40
2022-11-16T20:11:28.193Z,4.37
2022-11-16T20:13:56.587Z,4.80
2022-11-16T20:16:25.397Z,5.73
2022-11-16T20:18:53.095Z,4.03
2022-11-16T20:21:28.021Z,6.10
2022-11-16T20:24:04.739Z,7.73
2022-11-16T20:26:34.630Z,5.70
2022-11-16T20:29:01.606Z,5.10
2022-11-16T20:31:30.351Z,6.17
2022-11-16T20:33:59.038Z,5.50
2022-11-16T20:36:28.189Z,4.70
2022-11-16T20:38:55.944Z,4.63
2022-11-16T20:41:24.722Z,4.70
2022-11-16T20:43:53.277Z,5.60
2022-11-16T20:46:22.001Z,6.47
2022-11-16T20:48:48.752Z,4.37
2022-11-16T20:51:18.149Z,5.20
2022-11-16T20:53:46.175Z,4.63
2022-11-16T20:56:13.160Z,6.33
2022-11-16T20:58:40.542Z,4.93
2022-11-16T21:01:10.802Z,6.67
2022-11-16T21:03:38.330Z,6.00
2022-11-16T21:06:08.608Z,5.80
2022-11-16T21:08:36.472Z,5.30
2022-11-16T21:11:09.427Z,4.33
2022-11-16T21:13:54.782Z,5.13
2022-11-16T21:16:21.441Z,4.10
2022-11-16T21:18:48.040Z,3.63
2022-11-16T21:21:15.569Z,3.70
2022-11-16T21:23:44.973Z,4.90
2022-11-16T21:26:13.738Z,4.10
2022-11-16T21:28:41.199Z,3.60
2022-11-16T21:31:11.463Z,4.67
2022-11-16T21:33:38.251Z,4.87
2022-11-16T21:36:06.332Z,4.63
2022-11-16T21:38:34.121Z,5.10
2022-11-16T21:41:01.550Z,3.30
2022-11-16T21:43:28.242Z,4.27
2022-11-16T21:46:01.514Z,3.40
2022-11-16T21:48:28.245Z,4.20
2022-11-16T21:51:06.208Z,4.10
2022-11-16T21:53:33.829Z,4.10
2022-11-16T21:56:01.494Z,4.80
2022-11-16T21:58:28.209Z,3.50
2022-11-16T22:01:00.713Z,4.50
2022-11-16T22:03:31.513Z,4.23
2022-11-16T22:06:18.856Z,4.00
2022-11-16T22:08:47.672Z,4.67
2022-11-16T22:11:15.509Z,4.07
2022-11-16T22:13:43.028Z,3.90
2022-11-16T22:16:12.061Z,4.20
2022-11-16T22:18:39.439Z,3.30
2022-11-16T22:21:06.956Z,3.57
2022-11-16T22:23:34.874Z,4.67
2022-11-16T22:26:06.406Z,3.73
2022-11-16T22:28:33.442Z,3.80
2022-11-16T22:31:04.943Z,3.47
2022-11-16T22:33:32.573Z,4.07
2022-11-16T22:35:59.816Z,3.73
2022-11-16T22:38:26.956Z,3.23
2022-11-16T22:40:55.360Z,3.20
2022-11-16T22:43:25.435Z,3.53
2022-11-16T22:45:56.066Z,3.47
2022-11-16T22:48:22.648Z,3.10
2022-11-16T22:50:49.213Z,3.00
2022-11-16T22:53:15.841Z,4.07
2022-11-16T22:55:42.459Z,4.27
2022-11-16T22:58:09.122Z,4.33
2022-11-16T23:00:40.607Z,3.40
2022-11-16T23:03:08.759Z,6.13
2022-11-16T23:05:35.351Z,2.57
2022-11-16T23:08:01.948Z,3.23
2022-11-16T23:10:28.914Z,3.30
2022-11-16T23:13:14.145Z,3.40
2022-11-16T23:15:50.000Z,3.10
2022-11-16T23:18:17.100Z,3.57
2022-11-16T23:21:07.183Z,3.33
2022-11-16T23:23:52.615Z,2.57
2022-11-16T23:26:42.243Z,3.03
2022-11-16T23:29:10.386Z,3.33
2022-11-16T23:31:37.702Z,2.63
2022-11-16T23:34:05.143Z,2.67
2022-11-16T23:36:32.341Z,3.00
2022-11-16T23:38:58.912Z,2.80
2022-11-16T23:41:44.207Z,2.87
2022-11-16T23:44:10.885Z,2.80
2022-11-16T23:46:37.478Z,2.60
2022-11-16T23:49:04.142Z,2.90
2022-11-16T23:51:30.784Z,2.70
2022-11-16T23:53:57.725Z,2.80
2022-11-16T23:56:24.451Z,2.60
2022-11-16T23:58:54.852Z,2.83
